EGMC/SEN METAR and TAF weather

Enter ICAO airport designator
Station Type Date Time Source
EGMC METAR 2019/12/07 09:50 UTC NOAA

EGMC 070950Z 24009KT 9999 BKN042 08/05 Q1014


Station Type Date Time Source
EGMC Decoded METAR 2019/12/07 09:50 UTC NOAA

Southend-On-Sea , United Kingdom (EGMC) 51-34N 000-42E
Dec 07, 2019 - 04:50 AM EST / 2019.12.07 0950 UTC
Wind: from the WSW (240 degrees) at 10 MPH (9 KT):0
Visibility: greater than 7 mile(s):0
Sky conditions: mostly cloudy
Temperature: 46 F (8 C)
Dew Point: 41 F (5 C)
Relative Humidity: 81%
Pressure (altimeter): 29.94 in. Hg (1014 hPa)
ob: EGMC 070950Z 24009KT 9999 BKN042 08/05 Q1014
cycle: 10

Station Type Date Time Source
EGMC TAF 2016/04/18 18:00 UTC NOAA

TAF EGMC 181658Z 1818/1903 28008KT 9999 BKN045

Example: see airport list